Flight Track Log - Related Links

Times and Time Zones

All times are in EDT time to prevent confusion due to time zone crossing. See the CTL13 flight status page for this flight to view local times or setup timezone preferences in your user account.

Time Position Orientation Groundspeed Altitude Reporting Facility
EDT Latitude Longitude Course Direction KTS MPH feet Rate Location/Type
Mon 08:29:50 PM 39.9000 -86.2833 North 153 176 1,900  Level Indianapolis TRACON
Mon 08:30:44 PM 39.9333 -86.3000 339° North 181 208 2,000 67 Climbing Indianapolis TRACON
Mon 08:31:19 PM 39.9592 -86.3139 338° Northwest 168 193 2,000 250 Level Indianapolis Center
Mon 08:32:20 PM 40.0086 -86.3269 349° North 176 203 2,400 439 Climbing Indianapolis Center
Mon 08:33:22 PM 40.0661 -86.3394 351° North 176 203 2,900 242 Climbing Indianapolis Center
Mon 08:34:24 PM 40.1114 -86.3536 347° North 172 198 2,900 49 Level Indianapolis Center
Mon 08:35:25 PM 40.1581 -86.3664 348° North 172 198 3,000  Climbing Indianapolis Center
Mon 08:36:27 PM 40.2028 -86.3753 351° North 168 193 2,900 -40 Descending Indianapolis Center
Mon 08:37:54 PM 40.2678 -86.3953 347° North 162 186 2,900 44 Level Chicago Center
Mon 08:38:44 PM 40.3014 -86.4053 347° North 164 189 3,000 54 Climbing Chicago Center
Mon 08:39:45 PM 40.3439 -86.4217 344° North 162 186 3,000 -49 Level Chicago Center
Mon 08:40:47 PM 40.3947 -86.4447 341° North 161 185 2,900 -48 Descending Chicago Center
Mon 08:41:49 PM 40.4378 -86.4619 343° North 161 185 2,900 97 Level Chicago Center
Mon 08:42:51 PM 40.4797 -86.4783 343° North 160 184 3,100  Climbing Chicago Center
Mon 08:43:52 PM 40.5183 -86.5025 335° Northwest 157 181 2,900 -49 Descending Chicago Center
Mon 08:44:54 PM 40.5550 -86.5322 328° Northwest 155 178 3,000 48 Climbing Chicago Center
Mon 08:45:56 PM 40.5881 -86.5647 323° Northwest 153 176 3,000 -48 Level Chicago Center
Mon 08:46:58 PM 40.6203 -86.6025 318° Northwest 153 176 2,900  Descending Chicago Center
Mon 08:47:59 PM 40.6569 -86.6467 318° Northwest 152 175 3,000 146 Climbing Chicago Center
Mon 08:49:01 PM 40.6961 -86.6756 331° Northwest 158 182 3,200 -49 Climbing Chicago Center
Mon 08:50:02 PM 40.7347 -86.7053 330° Northwest 152 175 2,900 -104 Descending Chicago Center
Mon 08:50:56 PM 40.7631 -86.7264 331° Northwest 138 159 3,000  Climbing Chicago Center
Mon 08:52:03 PM 40.7936 -86.7503 329° Northwest 121 139 2,900  Descending Chicago Center
Mon 08:53:08 PM 40.8256 -86.7764 328° Northwest 122 140 3,000 50 Climbing Chicago Center
Mon 08:54:04 PM 40.8478 -86.8086 312° West 128 147 3,000  Level Chicago Center

Login

Don't have an account? Register now (free) for customized features, flight alerts, and more!